Terminal Aerodrome Forecast
Issued by NWS

Home | Current Version | Previous Version | Text Only | Print | Product List | Glossary On
Versions: 1 2 3 4 5 6 7 8 9 10 11 12 13 14 15 16 17 18 19 20 21 22 23 24
673
FTUS46 KMFR 270520
TAFOTH
TAF
KOTH 270520Z 2706/2806 VRB03KT P6SM OVC015
     FM270800 14005KT P6SM -SHRA OVC009
     FM271600 16007KT P6SM -SHRA SCT010 OVC020
     FM272000 23008KT P6SM -SHRA SCT020 OVC040
     FM280300 VRB03KT P6SM OVC040=

USA.gov is the U.S. government's official web portal to all federal, state and local government web resources and services.